createdAt,value
2022-08-31T00:00:10.510Z,19.55
2022-08-31T00:02:57.888Z,19.51
2022-08-31T00:05:24.820Z,19.47
2022-08-31T00:07:52.730Z,19.45
2022-08-31T00:10:31.833Z,19.40
2022-08-31T00:13:00.746Z,19.34
2022-08-31T00:15:30.173Z,19.31
2022-08-31T00:17:57.815Z,19.31
2022-08-31T00:20:33.193Z,19.28
2022-08-31T00:23:01.497Z,19.22
2022-08-31T00:25:28.687Z,19.22
2022-08-31T00:27:55.907Z,19.20
2022-08-31T00:30:23.460Z,19.19
2022-08-31T00:32:50.653Z,19.20
2022-08-31T00:35:19.270Z,19.20
2022-08-31T00:37:46.115Z,19.18
2022-08-31T00:40:13.906Z,19.17
2022-08-31T00:42:41.030Z,19.16
2022-08-31T00:45:09.314Z,19.15
2022-08-31T00:47:36.714Z,19.10
2022-08-31T00:50:08.821Z,19.06
2022-08-31T00:52:38.352Z,19.02
2022-08-31T00:55:05.866Z,18.98
2022-08-31T00:57:35.407Z,18.98
2022-08-31T01:00:06.836Z,18.97
2022-08-31T01:02:33.762Z,18.93
2022-08-31T01:05:00.788Z,18.97
2022-08-31T01:07:27.943Z,18.98
2022-08-31T01:09:56.221Z,19.00
2022-08-31T01:12:23.871Z,19.00
2022-08-31T01:14:51.141Z,18.96
2022-08-31T01:17:18.755Z,18.92
2022-08-31T01:19:50.170Z,18.88
2022-08-31T01:22:37.399Z,18.89
2022-08-31T01:25:04.592Z,18.87
2022-08-31T01:27:34.368Z,18.86
2022-08-31T01:30:07.255Z,18.86
2022-08-31T01:32:35.067Z,18.85
2022-08-31T01:35:02.672Z,18.83
2022-08-31T01:37:30.419Z,18.79
2022-08-31T01:39:57.634Z,18.76
2022-08-31T01:42:32.896Z,18.75
2022-08-31T01:45:01.903Z,18.72
2022-08-31T01:47:31.548Z,18.71
2022-08-31T01:49:58.453Z,18.69
2022-08-31T01:52:27.828Z,18.73
2022-08-31T01:54:55.820Z,18.70
2022-08-31T01:57:33.472Z,18.66
2022-08-31T02:00:24.451Z,18.65
2022-08-31T02:02:51.319Z,18.65
2022-08-31T02:05:19.750Z,18.65
2022-08-31T02:07:47.151Z,18.63
2022-08-31T02:10:14.201Z,18.62
2022-08-31T02:12:41.247Z,18.57
2022-08-31T02:15:09.803Z,18.57
2022-08-31T02:17:36.688Z,18.53
2022-08-31T02:20:06.492Z,18.52
2022-08-31T02:22:34.677Z,18.50
2022-08-31T02:25:02.436Z,18.47
2022-08-31T02:27:30.863Z,18.44
2022-08-31T02:29:57.999Z,18.40
2022-08-31T02:32:25.199Z,18.30
2022-08-31T02:34:52.203Z,18.26
2022-08-31T02:37:21.089Z,18.23
2022-08-31T02:39:50.187Z,18.20
2022-08-31T02:42:20.944Z,18.19
2022-08-31T02:44:50.267Z,18.18
2022-08-31T02:47:18.671Z,18.20
2022-08-31T02:50:02.777Z,18.22
2022-08-31T02:52:30.355Z,18.22
2022-08-31T02:54:57.185Z,18.22
2022-08-31T02:57:24.316Z,18.20
2022-08-31T02:59:51.226Z,18.21
2022-08-31T03:02:18.470Z,18.22
2022-08-31T03:04:46.435Z,18.20
2022-08-31T03:07:15.850Z,18.16
2022-08-31T03:09:45.404Z,18.15
2022-08-31T03:12:12.601Z,18.13
2022-08-31T03:14:39.765Z,18.15
2022-08-31T03:17:07.192Z,18.13
2022-08-31T03:19:34.662Z,18.11
2022-08-31T03:22:03.612Z,18.10
2022-08-31T03:24:31.390Z,18.10
2022-08-31T03:26:59.392Z,18.06
2022-08-31T03:29:27.858Z,18.10
2022-08-31T03:31:54.696Z,18.07
2022-08-31T03:34:22.482Z,18.05
2022-08-31T03:36:49.357Z,18.05
2022-08-31T03:39:16.267Z,18.01
2022-08-31T03:41:43.607Z,18.01
2022-08-31T03:44:10.558Z,18.00
2022-08-31T03:46:39.762Z,17.97
2022-08-31T03:49:07.823Z,17.97
2022-08-31T03:51:35.359Z,17.95
2022-08-31T03:54:03.846Z,17.90
2022-08-31T03:56:32.984Z,17.87
2022-08-31T03:58:59.796Z,17.85
2022-08-31T04:01:47.559Z,17.82
2022-08-31T04:04:32.802Z,17.84
2022-08-31T04:07:26.087Z,17.86
2022-08-31T04:10:12.574Z,17.87
2022-08-31T04:13:02.449Z,17.88
2022-08-31T04:15:38.020Z,17.90
2022-08-31T04:18:24.229Z,17.92
2022-08-31T04:20:51.015Z,17.95
2022-08-31T04:23:18.167Z,17.98
2022-08-31T04:25:52.776Z,18.04
2022-08-31T04:28:20.360Z,18.10
2022-08-31T04:30:48.593Z,18.19
2022-08-31T04:33:16.721Z,18.27
2022-08-31T04:35:44.086Z,18.37
2022-08-31T04:38:12.211Z,18.49
2022-08-31T04:40:41.666Z,18.60
2022-08-31T04:43:08.909Z,18.85
2022-08-31T04:45:40.466Z,19.37
2022-08-31T04:48:09.364Z,19.83
2022-08-31T04:50:42.330Z,19.94
2022-08-31T04:53:10.064Z,19.99
2022-08-31T04:55:43.620Z,19.94
2022-08-31T04:58:13.872Z,19.88
2022-08-31T05:00:44.112Z,19.79
2022-08-31T05:03:23.203Z,19.73
2022-08-31T05:05:53.721Z,19.71
2022-08-31T05:08:21.544Z,19.70
2022-08-31T05:10:49.949Z,19.76
2022-08-31T05:13:17.129Z,19.71
2022-08-31T05:15:44.656Z,19.73
2022-08-31T05:18:16.475Z,19.81
2022-08-31T05:20:51.664Z,19.94
2022-08-31T05:23:18.950Z,19.90
2022-08-31T05:28:00.957Z,19.87
2022-08-31T05:30:28.097Z,19.90
2022-08-31T05:33:04.785Z,19.95
2022-08-31T05:35:34.339Z,20.04
2022-08-31T05:38:01.171Z,20.18
2022-08-31T05:40:28.303Z,20.33
2022-08-31T05:45:49.786Z,20.82
2022-08-31T05:48:17.260Z,21.08
2022-08-31T05:50:44.755Z,21.46
2022-08-31T05:53:11.928Z,21.59
2022-08-31T05:55:39.706Z,21.89
2022-08-31T05:58:07.022Z,22.36
2022-08-31T06:00:34.116Z,22.68
2022-08-31T06:03:21.425Z,23.56
2022-08-31T06:05:50.689Z,24.60
2022-08-31T06:08:17.883Z,25.03
2022-08-31T06:10:49.118Z,25.40
2022-08-31T06:13:17.267Z,26.24
2022-08-31T06:15:44.432Z,26.73
2022-08-31T06:18:11.729Z,26.65
2022-08-31T06:20:39.461Z,26.91
2022-08-31T06:23:07.395Z,27.45
2022-08-31T06:25:48.549Z,27.37
2022-08-31T06:28:15.873Z,26.78
2022-08-31T06:30:54.809Z,26.24
2022-08-31T06:33:24.064Z,26.28
2022-08-31T06:36:02.549Z,26.63
2022-08-31T06:38:52.086Z,26.28
2022-08-31T06:41:37.991Z,26.63
2022-08-31T06:44:24.240Z,27.29
2022-08-31T06:47:07.621Z,27.05
2022-08-31T06:49:38.983Z,26.74
2022-08-31T06:52:06.014Z,26.42
2022-08-31T06:54:35.239Z,26.55
2022-08-31T06:57:20.882Z,27.01
2022-08-31T07:00:08.466Z,26.86
2022-08-31T07:02:46.534Z,27.23
2022-08-31T07:05:24.949Z,26.90
2022-08-31T07:07:56.629Z,26.58
2022-08-31T07:10:23.577Z,26.64
2022-08-31T07:12:50.512Z,26.73
2022-08-31T07:15:17.867Z,26.97
2022-08-31T07:17:45.427Z,26.75
2022-08-31T07:20:12.781Z,26.53
2022-08-31T07:22:40.362Z,26.82
2022-08-31T07:25:27.438Z,26.66
2022-08-31T07:27:55.681Z,26.79
2022-08-31T07:30:23.389Z,26.40
2022-08-31T07:32:50.543Z,26.57
2022-08-31T07:35:24.014Z,26.60
2022-08-31T07:38:23.622Z,27.04
2022-08-31T07:41:11.536Z,27.23
2022-08-31T07:43:38.485Z,27.35
2022-08-31T07:46:06.954Z,27.34
2022-08-31T07:48:35.570Z,27.71
2022-08-31T07:51:13.383Z,27.35
2022-08-31T07:54:06.963Z,26.40
2022-08-31T07:56:43.333Z,25.95
2022-08-31T07:59:12.429Z,25.86
2022-08-31T08:01:41.950Z,26.08
2022-08-31T08:04:13.388Z,26.42
2022-08-31T08:07:00.445Z,26.68
2022-08-31T08:09:57.470Z,27.09
2022-08-31T08:13:05.398Z,26.77
2022-08-31T08:15:52.259Z,26.83
2022-08-31T08:18:31.107Z,26.91
2022-08-31T08:21:01.348Z,26.93
2022-08-31T08:23:29.705Z,26.98
2022-08-31T08:26:21.153Z,27.67
2022-08-31T08:29:08.996Z,27.69
2022-08-31T08:31:43.572Z,27.56
2022-08-31T08:34:10.946Z,27.73
2022-08-31T08:36:39.688Z,27.49
2022-08-31T08:39:08.017Z,28.00
2022-08-31T08:41:37.968Z,28.12
2022-08-31T08:44:08.181Z,27.62
2022-08-31T08:47:07.639Z,27.38
2022-08-31T08:49:48.802Z,27.34
2022-08-31T08:52:30.567Z,27.39
2022-08-31T08:55:01.721Z,27.41
2022-08-31T08:57:31.791Z,27.29
2022-08-31T09:00:03.974Z,27.36
2022-08-31T09:02:41.510Z,27.22
2022-08-31T09:05:14.630Z,27.36
2022-08-31T09:08:01.185Z,27.14
2022-08-31T09:10:31.357Z,27.22
2022-08-31T09:13:10.032Z,27.70
2022-08-31T09:15:47.816Z,28.07
2022-08-31T09:18:30.548Z,28.56
2022-08-31T09:21:04.866Z,28.04
2022-08-31T09:23:35.498Z,27.87
2022-08-31T09:26:08.218Z,28.04
2022-08-31T09:29:04.064Z,28.06
2022-08-31T09:31:41.418Z,28.16
2022-08-31T09:34:12.610Z,27.94
2022-08-31T09:36:43.443Z,28.02
2022-08-31T09:39:18.669Z,27.74
2022-08-31T09:41:46.831Z,27.41
2022-08-31T09:44:24.801Z,27.32
2022-08-31T09:46:56.910Z,27.41
2022-08-31T09:49:28.610Z,27.55
2022-08-31T09:52:14.291Z,27.92
2022-08-31T09:55:00.236Z,27.80
2022-08-31T09:57:54.076Z,27.79
2022-08-31T10:00:32.880Z,27.74
2022-08-31T10:03:08.986Z,27.44
2022-08-31T10:05:41.662Z,27.30
2022-08-31T10:08:18.871Z,26.90
2022-08-31T10:10:49.020Z,26.72
2022-08-31T10:13:23.067Z,26.47
2022-08-31T10:15:53.415Z,26.70
2022-08-31T10:18:32.553Z,26.48
2022-08-31T10:21:08.361Z,26.35
2022-08-31T10:23:38.037Z,26.61
2022-08-31T10:26:08.179Z,26.63
2022-08-31T10:28:50.937Z,26.66
2022-08-31T10:31:24.087Z,26.61
2022-08-31T10:34:13.592Z,26.73
2022-08-31T10:36:44.773Z,26.79
2022-08-31T10:39:27.871Z,26.80
2022-08-31T10:41:55.754Z,26.61
2022-08-31T10:44:33.547Z,26.83
2022-08-31T10:47:02.902Z,26.87
2022-08-31T10:49:29.954Z,27.04
2022-08-31T10:52:02.423Z,27.12
2022-08-31T10:54:39.312Z,27.35
2022-08-31T10:57:09.220Z,27.47
2022-08-31T11:00:01.085Z,27.59
2022-08-31T11:02:46.614Z,27.13
2022-08-31T11:05:18.843Z,27.13
2022-08-31T11:07:58.840Z,27.25
2022-08-31T11:10:42.491Z,27.38
2022-08-31T11:13:26.210Z,27.34
2022-08-31T11:16:32.820Z,27.45
2022-08-31T11:19:09.722Z,27.69
2022-08-31T11:21:41.557Z,27.88
2022-08-31T11:24:08.400Z,28.23
2022-08-31T11:26:54.102Z,28.56
2022-08-31T11:29:44.322Z,28.34
2022-08-31T11:32:11.253Z,28.34
2022-08-31T11:34:47.352Z,28.35
2022-08-31T11:37:34.865Z,28.34
2022-08-31T11:40:02.328Z,28.42
2022-08-31T11:42:53.652Z,28.34
2022-08-31T11:45:27.070Z,28.34
2022-08-31T11:47:55.100Z,28.21
2022-08-31T11:50:22.359Z,28.19
2022-08-31T11:52:53.823Z,28.21
2022-08-31T11:55:28.632Z,28.30
2022-08-31T11:58:06.332Z,28.38
2022-08-31T12:00:44.076Z,28.38
2022-08-31T12:03:34.834Z,28.48
2022-08-31T12:06:01.712Z,28.87
2022-08-31T12:08:47.306Z,28.76
2022-08-31T12:11:23.361Z,28.76
2022-08-31T12:14:00.031Z,28.64
2022-08-31T12:16:42.302Z,28.85
2022-08-31T12:19:32.534Z,28.70
2022-08-31T12:22:22.603Z,28.68
2022-08-31T12:24:55.815Z,28.67
2022-08-31T12:27:41.249Z,28.78
2022-08-31T12:30:23.482Z,28.86
2022-08-31T12:33:03.141Z,28.64
2022-08-31T12:35:32.030Z,28.28
2022-08-31T12:38:02.798Z,28.27
2022-08-31T12:40:35.987Z,28.37
2022-08-31T12:43:06.301Z,28.26
2022-08-31T12:45:36.635Z,28.01
2022-08-31T12:48:11.296Z,27.97
2022-08-31T12:50:42.890Z,27.99
2022-08-31T12:53:15.844Z,27.83
2022-08-31T12:55:42.989Z,28.10
2022-08-31T12:58:12.942Z,27.80
2022-08-31T13:00:40.152Z,27.88
2022-08-31T13:03:13.314Z,27.78
2022-08-31T13:05:40.493Z,27.52
2022-08-31T13:08:21.399Z,27.44
2022-08-31T13:10:48.266Z,27.32
2022-08-31T13:13:41.759Z,27.37
2022-08-31T13:16:08.792Z,27.38
2022-08-31T13:18:36.891Z,27.51
2022-08-31T13:21:05.987Z,27.53
2022-08-31T13:23:41.010Z,27.66
2022-08-31T13:26:19.997Z,27.69
2022-08-31T13:28:58.119Z,27.84
2022-08-31T13:31:27.007Z,27.59
2022-08-31T13:33:57.004Z,27.66
2022-08-31T13:36:32.385Z,27.65
2022-08-31T13:39:06.094Z,27.68
2022-08-31T13:41:37.922Z,27.70
2022-08-31T13:44:06.637Z,27.75
2022-08-31T13:46:43.336Z,27.66
2022-08-31T13:49:35.651Z,27.48
2022-08-31T13:52:15.524Z,27.35
2022-08-31T13:54:42.812Z,27.48
2022-08-31T13:57:20.858Z,27.23
2022-08-31T13:59:48.893Z,27.15
2022-08-31T14:02:16.455Z,27.07
2022-08-31T14:04:49.550Z,27.30
2022-08-31T14:07:21.804Z,27.05
2022-08-31T14:09:50.884Z,27.08
2022-08-31T14:12:34.958Z,26.70
2022-08-31T14:15:09.051Z,26.82
2022-08-31T14:17:41.589Z,26.83
2022-08-31T14:20:27.513Z,26.78
2022-08-31T14:22:54.746Z,26.55
2022-08-31T14:25:22.273Z,26.67
2022-08-31T14:27:49.170Z,26.40
2022-08-31T14:30:16.439Z,26.24
2022-08-31T14:32:45.834Z,26.19
2022-08-31T14:35:12.792Z,26.09
2022-08-31T14:37:42.280Z,26.10
2022-08-31T14:40:09.522Z,25.95
2022-08-31T14:42:38.330Z,25.79
2022-08-31T14:45:10.314Z,25.84
2022-08-31T14:47:44.178Z,25.67
2022-08-31T14:50:12.236Z,25.74
2022-08-31T14:52:41.559Z,25.63
2022-08-31T14:55:11.243Z,25.47
2022-08-31T14:57:41.824Z,25.34
2022-08-31T15:00:11.787Z,25.14
2022-08-31T15:02:39.165Z,25.14
2022-08-31T15:05:07.593Z,25.06
2022-08-31T15:07:36.639Z,25.01
2022-08-31T15:10:06.789Z,25.13
2022-08-31T15:12:34.549Z,24.91
2022-08-31T15:15:01.748Z,24.78
2022-08-31T15:17:36.310Z,24.82
2022-08-31T15:20:04.851Z,24.72
2022-08-31T15:22:33.270Z,24.54
2022-08-31T15:25:00.400Z,24.60
2022-08-31T15:27:30.802Z,24.40
2022-08-31T15:30:07.730Z,24.44
2022-08-31T15:32:43.752Z,24.51
2022-08-31T15:35:14.496Z,24.44
2022-08-31T15:37:41.629Z,24.33
2022-08-31T15:40:10.270Z,24.31
2022-08-31T15:42:39.908Z,24.33
2022-08-31T15:45:07.916Z,24.40
2022-08-31T15:47:56.591Z,24.25
2022-08-31T15:50:31.685Z,24.18
2022-08-31T15:53:09.437Z,24.30
2022-08-31T15:55:38.904Z,24.35
2022-08-31T15:58:08.862Z,24.13
2022-08-31T16:00:36.695Z,24.11
2022-08-31T16:03:04.155Z,24.04
2022-08-31T16:05:35.955Z,24.03
2022-08-31T16:08:03.204Z,24.01
2022-08-31T16:10:30.919Z,23.84
2022-08-31T16:12:58.181Z,23.83
2022-08-31T16:15:26.218Z,23.74
2022-08-31T16:17:57.234Z,23.73
2022-08-31T16:20:24.124Z,23.77
2022-08-31T16:22:50.940Z,23.72
2022-08-31T16:25:20.466Z,23.70
2022-08-31T16:27:47.591Z,23.55
2022-08-31T16:30:14.606Z,23.48
2022-08-31T16:32:41.775Z,23.62
2022-08-31T16:35:08.763Z,23.44
2022-08-31T16:37:35.711Z,23.36
2022-08-31T16:40:04.348Z,23.35
2022-08-31T16:42:31.615Z,23.35
2022-08-31T16:45:02.323Z,23.37
2022-08-31T16:47:31.586Z,23.35
2022-08-31T16:50:00.850Z,23.21
2022-08-31T16:52:27.718Z,23.27
2022-08-31T16:54:57.004Z,23.24
2022-08-31T16:57:27.297Z,23.11
2022-08-31T16:59:55.331Z,23.05
2022-08-31T17:02:23.774Z,23.00
2022-08-31T17:04:53.338Z,22.96
2022-08-31T17:07:21.453Z,23.00
2022-08-31T17:09:48.842Z,22.94
2022-08-31T17:12:17.499Z,22.95
2022-08-31T17:14:46.818Z,23.12
2022-08-31T17:17:16.255Z,22.95
2022-08-31T17:19:47.184Z,22.85
2022-08-31T17:22:23.319Z,22.95
2022-08-31T17:24:56.358Z,22.81
2022-08-31T17:27:24.445Z,22.74
2022-08-31T17:29:52.718Z,22.72
2022-08-31T17:32:20.830Z,22.66
2022-08-31T17:34:51.804Z,22.62
2022-08-31T17:37:20.703Z,22.65
2022-08-31T17:39:53.195Z,22.64
2022-08-31T17:42:21.042Z,22.57
2022-08-31T17:44:52.171Z,22.59
2022-08-31T17:47:22.017Z,22.55
2022-08-31T17:49:52.787Z,22.50
2022-08-31T17:52:21.732Z,22.47
2022-08-31T17:54:50.965Z,22.44
2022-08-31T17:57:19.127Z,22.39
2022-08-31T17:59:48.417Z,22.32
2022-08-31T18:02:17.796Z,22.27
2022-08-31T18:04:44.767Z,22.27
2022-08-31T18:07:11.672Z,22.29
2022-08-31T18:09:40.454Z,22.11
2022-08-31T18:12:07.830Z,22.12
2022-08-31T18:14:36.007Z,22.21
2022-08-31T18:17:04.581Z,22.18
2022-08-31T18:19:33.016Z,22.10
2022-08-31T18:22:00.812Z,22.11
2022-08-31T18:24:28.349Z,21.99
2022-08-31T18:26:56.828Z,21.93
2022-08-31T18:29:24.990Z,21.92
2022-08-31T18:31:57.063Z,21.96
2022-08-31T18:34:24.453Z,21.86
2022-08-31T18:36:52.657Z,21.91
2022-08-31T18:39:34.820Z,21.91
2022-08-31T18:42:27.608Z,21.97
2022-08-31T18:45:13.499Z,21.96
2022-08-31T18:47:40.354Z,21.98
2022-08-31T18:50:07.900Z,21.97
2022-08-31T18:52:40.324Z,21.90
2022-08-31T18:55:15.624Z,21.88
2022-08-31T18:57:49.099Z,21.77
2022-08-31T19:00:17.875Z,21.72
2022-08-31T19:02:45.119Z,21.52
2022-08-31T19:05:13.140Z,21.40
2022-08-31T19:07:41.441Z,21.26
2022-08-31T19:10:12.904Z,21.20
2022-08-31T19:12:42.886Z,21.17
2022-08-31T19:15:11.346Z,21.02
2022-08-31T19:17:40.251Z,21.03
2022-08-31T19:20:10.481Z,20.97
2022-08-31T19:22:37.746Z,20.95
2022-08-31T19:25:05.424Z,20.93
2022-08-31T19:27:33.756Z,20.84
2022-08-31T19:30:00.995Z,20.84
2022-08-31T19:32:29.225Z,20.81
2022-08-31T19:34:58.260Z,20.78
2022-08-31T19:37:26.173Z,20.76
2022-08-31T19:39:53.052Z,20.75
2022-08-31T19:42:39.712Z,20.71
2022-08-31T19:45:23.431Z,20.72
2022-08-31T19:47:51.062Z,20.63
2022-08-31T19:50:17.944Z,20.63
2022-08-31T19:52:45.677Z,20.67
2022-08-31T19:55:12.898Z,20.74
2022-08-31T19:57:39.923Z,20.76
2022-08-31T20:00:12.881Z,20.76
2022-08-31T20:02:42.369Z,20.79
2022-08-31T20:05:09.668Z,20.81
2022-08-31T20:07:36.669Z,20.86
2022-08-31T20:10:04.327Z,20.86
2022-08-31T20:12:31.265Z,20.81
2022-08-31T20:15:01.036Z,20.78
2022-08-31T20:17:30.232Z,20.78
2022-08-31T20:20:00.975Z,20.74
2022-08-31T20:22:29.957Z,20.73
2022-08-31T20:25:07.981Z,20.65
2022-08-31T20:27:37.727Z,20.65
2022-08-31T20:30:05.117Z,20.66
2022-08-31T20:32:33.867Z,20.58
2022-08-31T20:35:02.264Z,20.54
2022-08-31T20:37:30.367Z,20.52
2022-08-31T20:39:57.405Z,20.59
2022-08-31T20:42:26.524Z,20.57
2022-08-31T20:44:53.435Z,20.57
2022-08-31T20:47:38.952Z,20.49
2022-08-31T20:50:07.510Z,20.41
2022-08-31T20:52:37.734Z,20.40
2022-08-31T20:55:05.248Z,20.39
2022-08-31T20:57:33.474Z,20.31
2022-08-31T21:00:03.003Z,20.31
2022-08-31T21:02:34.638Z,20.28
2022-08-31T21:05:26.723Z,20.31
2022-08-31T21:07:49.476Z,20.30
2022-08-31T21:10:16.732Z,20.22
2022-08-31T21:12:51.067Z,20.28
2022-08-31T21:15:22.500Z,20.15
2022-08-31T21:17:56.228Z,20.14
2022-08-31T21:20:24.255Z,20.15
2022-08-31T21:22:51.404Z,20.22
2022-08-31T21:25:18.847Z,20.18
2022-08-31T21:27:46.925Z,20.15
2022-08-31T21:30:39.022Z,20.02
2022-08-31T21:33:06.308Z,20.04
2022-08-31T21:35:33.132Z,20.08
2022-08-31T21:38:02.718Z,20.01
2022-08-31T21:40:31.198Z,19.98
2022-08-31T21:42:58.434Z,20.00
2022-08-31T21:45:25.481Z,19.98
2022-08-31T21:47:52.800Z,19.98
2022-08-31T21:50:19.725Z,20.00
2022-08-31T21:52:46.713Z,20.01
2022-08-31T21:55:15.849Z,20.04
2022-08-31T21:57:43.759Z,19.99
2022-08-31T22:00:16.000Z,19.98
2022-08-31T22:02:54.821Z,19.97
2022-08-31T22:05:21.703Z,19.94
2022-08-31T22:07:49.308Z,19.85
2022-08-31T22:10:16.170Z,19.85
2022-08-31T22:12:43.059Z,19.81
2022-08-31T22:15:11.652Z,19.87
2022-08-31T22:18:02.031Z,19.85
2022-08-31T22:20:27.587Z,19.83
2022-08-31T22:22:55.053Z,19.88
2022-08-31T22:25:34.995Z,19.86
2022-08-31T22:28:07.455Z,19.88
2022-08-31T22:30:36.340Z,19.82
2022-08-31T22:33:03.645Z,19.76
2022-08-31T22:35:30.764Z,19.69
2022-08-31T22:37:57.669Z,19.68
2022-08-31T22:40:24.614Z,19.66
2022-08-31T22:42:53.040Z,19.60
2022-08-31T22:45:20.536Z,19.44
2022-08-31T22:47:50.141Z,19.34
2022-08-31T22:50:17.751Z,19.30
2022-08-31T22:52:44.672Z,19.19
2022-08-31T22:55:11.546Z,19.09
2022-08-31T22:57:38.662Z,18.99
2022-08-31T23:00:12.226Z,18.95
2022-08-31T23:02:44.872Z,18.82
2022-08-31T23:05:15.502Z,18.77
2022-08-31T23:07:43.125Z,18.77
2022-08-31T23:10:15.405Z,18.77
2022-08-31T23:12:43.492Z,18.75
2022-08-31T23:15:13.118Z,18.71
2022-08-31T23:17:47.718Z,18.72
2022-08-31T23:20:19.451Z,18.67
2022-08-31T23:22:48.225Z,18.57
2022-08-31T23:25:17.328Z,18.51
2022-08-31T23:27:45.086Z,18.50
2022-08-31T23:30:12.949Z,18.53
2022-08-31T23:32:41.387Z,18.51
2022-08-31T23:35:08.956Z,18.54
2022-08-31T23:37:37.522Z,18.60
2022-08-31T23:40:06.191Z,18.64
2022-08-31T23:42:34.260Z,18.69
2022-08-31T23:45:02.128Z,18.76
2022-08-31T23:47:31.152Z,18.77
2022-08-31T23:49:59.408Z,18.80
2022-08-31T23:52:27.529Z,18.85
2022-08-31T23:54:57.887Z,18.80
2022-08-31T23:57:32.441Z,18.85
